This demonstration page uses our WeatherBlox Daily Observations layout. Learn more.

41.55636, -103.73856

Hourly Observations for January 16, 2021

Temp ( °F °C ) Dew Point ( °F °C ) Humidity (%) Winds ( mph kmh ) Pressure ( in mb ) Visibility ( mi km ) Precip ( " mm )
12:58 am 00:58 Cloudy 34 1 19 -7.5 53 53 NW 12 19 30.04 1017 10 16.0934 0 0
1:58 am 01:58 Cloudy 36 2.2 19 -7.1 51 51 NW 14 22 30.04 1017 10 16.0934 0 0
2:58 am 02:58 Mostly Cloudy 36 2 20 -6.4 54 54 WNW 7 11 30.04 1017 10 16.0934 0 0
3:58 am 03:58 Mostly Cloudy 36 2 23 -4.9 61 61 NNW 12 19 30.03 1017 10 16.0934 0 0
4:58 am 04:58 Cloudy with Light Rain 35 1.8 31 -0.8 83 83 NW 20 31 30.06 1018 10 16.0934 0 0
5:58 am 05:58 Cloudy with Light Showers 34 1.2 32 0.2 93 93 WNW 16 26 30.08 1019 10 16.0934 0 0
6:58 am 06:58 Partly Cloudy 33 0.5 31 -0.8 91 91 NW 12 19 30.1 1019 10 16.0934 0 0
7:58 am 07:58 Mostly Cloudy 35 1.6 31 -0.4 87 87 NW 23 37 30.1 1019 10 16.0934 0 0
8:58 am 08:58 Mostly Cloudy 37 2.5 31 -0.8 79 79 NW 22 35 30.16 1021 10 16.0934 0 0
9:58 am 09:58 Mostly Cloudy 38 3.3 25 -3.9 60 60 NNW 22 35 30.16 1022 10 16.0934 0 0
10:58 am 10:58 Mostly Cloudy 38 3.6 21 -6 50 50 NNW 25 41 30.16 1021 10 16.0934 0 0
11:58 am 11:58 Partly Cloudy 38 3.5 20 -6.6 48 48 NNW 30 48 30.12 1020 10 16.0934 0 0
12:58 pm 12:58 Mostly Cloudy 39 3.8 17 -8.6 40 40 NNW 35 56 30.1 1019 10 16.0934 0 0
1:58 pm 13:58 Mostly Cloudy 39 3.7 16 -8.9 40 40 NNW 26 43 30.1 1019 10 16.0934 0 0
2:58 pm 14:58 Mostly Cloudy 39 3.7 17 -8.5 41 41 N 22 35 30.1 1019 10 16.0934 0 0
3:58 pm 15:58 Mostly Cloudy 37 2.8 15 -9.2 41 41 NNW 20 31 30.12 1020 10 16.0934 0 0
4:58 pm 16:58 Mostly Cloudy 35 1.8 19 -7.3 51 51 NNW 20 31 30.13 1020 10 16.0934 0 0
5:58 pm 17:58 Mostly Cloudy 34 1.3 18 -8 50 50 NNW 20 31 30.14 1021 10 16.0934 0 0
6:58 pm 18:58 Mostly Cloudy 32 0.2 19 -7.1 58 58 NNW 15 24 30.17 1022 10 16.0934 0 0
7:58 pm 19:58 Mostly Cloudy 33 0.5 16 -8.9 50 50 NNW 18 30 30.16 1021 10 16.0934 0 0
8:58 pm 20:58 Partly Cloudy 29 -1.7 17 -8.1 62 62 NW 13 20 30.19 1022 10 16.0934 0 0
9:58 pm 21:58 Clear 27 -3 17 -8.6 66 66 WNW 13 20 30.19 1023 10 16.0934 0 0
10:58 pm 22:58 Clear 25 -3.8 15 -9.7 64 64 NW 12 19 30.19 1022 10 16.0934 0 0
11:58 pm 23:58 Clear 20 -6.9 12 -11 73 73 W 7 11 30.2 1023 10 16.0934 0 0

Powered by AerisWeather